createdAt,value
2022-08-16T02:52:31.234Z,23.10
2022-08-16T02:54:35.921Z,23.10
2022-08-16T02:56:39.554Z,23.10
2022-08-16T02:58:44.225Z,23.10
2022-08-16T03:00:50.096Z,23.10
2022-08-16T03:02:56.415Z,23.10
2022-08-16T03:04:59.305Z,23.10
2022-08-16T03:07:03.883Z,23.10
2022-08-16T03:09:13.607Z,23.00
2022-08-16T03:11:21.710Z,23.00
2022-08-16T03:13:24.785Z,23.10
2022-08-16T03:15:30.889Z,23.00
2022-08-16T03:17:33.971Z,23.00
2022-08-16T03:19:47.220Z,22.90
2022-08-16T03:21:56.097Z,23.00
2022-08-16T03:23:59.429Z,23.00
2022-08-16T03:26:03.669Z,22.90
2022-08-16T03:28:07.790Z,22.80
2022-08-16T03:30:17.291Z,22.80
2022-08-16T03:32:28.654Z,22.80
2022-08-16T03:34:33.204Z,22.90
2022-08-16T03:36:45.704Z,22.90
2022-08-16T03:38:48.742Z,22.80
2022-08-16T03:40:53.365Z,22.80
2022-08-16T03:43:18.619Z,22.80
2022-08-16T03:45:27.224Z,22.80
2022-08-16T03:47:34.867Z,22.80
2022-08-16T03:49:38.261Z,22.80
2022-08-16T03:51:43.320Z,22.70
2022-08-16T03:53:46.096Z,22.70
2022-08-16T03:56:04.334Z,22.70
2022-08-16T03:58:10.578Z,22.50
2022-08-16T04:00:36.076Z,22.60
2022-08-16T04:02:40.285Z,22.50
2022-08-16T04:04:43.123Z,22.50
2022-08-16T04:06:46.176Z,22.50
2022-08-16T04:08:50.568Z,22.40
2022-08-16T04:10:57.879Z,22.40
2022-08-16T04:13:04.438Z,22.50
2022-08-16T04:15:12.304Z,22.40
2022-08-16T04:17:19.894Z,22.50
2022-08-16T04:19:25.947Z,22.40
2022-08-16T04:21:36.028Z,22.40
2022-08-16T04:23:49.028Z,22.30
2022-08-16T04:25:57.651Z,22.30
2022-08-16T04:28:51.663Z,22.40
2022-08-16T04:30:31.744Z,22.40
2022-08-16T04:32:35.619Z,22.40
2022-08-16T04:34:40.244Z,22.40
2022-08-16T04:36:43.007Z,22.40
2022-08-16T04:38:52.549Z,22.40
2022-08-16T04:40:55.567Z,22.30
2022-08-16T04:43:01.273Z,22.30
2022-08-16T04:45:04.669Z,22.30
2022-08-16T04:47:21.182Z,22.30
2022-08-16T04:49:26.828Z,22.40
2022-08-16T04:51:53.808Z,22.20
2022-08-16T04:53:58.220Z,22.30
2022-08-16T04:56:00.997Z,22.30
2022-08-16T04:58:04.067Z,22.40
2022-08-16T05:00:34.213Z,22.40
2022-08-16T05:02:55.788Z,22.50
2022-08-16T05:04:59.225Z,22.60
2022-08-16T05:07:01.963Z,22.70
2022-08-16T05:09:04.945Z,22.70
2022-08-16T05:11:09.780Z,22.80
2022-08-16T05:13:15.593Z,22.80
2022-08-16T05:15:18.668Z,22.90
2022-08-16T05:17:24.903Z,22.90
2022-08-16T05:19:36.041Z,23.00
2022-08-16T05:21:39.512Z,23.00
2022-08-16T05:23:45.483Z,23.10
2022-08-16T05:25:59.701Z,23.20
2022-08-16T05:28:02.507Z,23.20
2022-08-16T05:30:35.670Z,23.30
2022-08-16T05:32:32.730Z,23.30
2022-08-16T05:34:40.468Z,23.40
2022-08-16T05:36:44.079Z,23.40
2022-08-16T05:38:48.479Z,23.40
2022-08-16T05:40:57.302Z,23.50
2022-08-16T05:43:03.518Z,23.50
2022-08-16T05:45:07.995Z,23.60
2022-08-16T05:47:11.389Z,23.60
2022-08-16T05:49:22.509Z,23.70
2022-08-16T05:51:38.690Z,23.70
2022-08-16T05:53:43.211Z,23.70
2022-08-16T05:55:46.307Z,23.90
2022-08-16T05:57:52.649Z,23.90
2022-08-16T05:59:59.701Z,24.00
2022-08-16T06:02:07.611Z,24.10
2022-08-16T06:04:13.762Z,24.20
2022-08-16T06:06:36.297Z,24.30
2022-08-16T06:08:46.479Z,24.30
2022-08-16T06:11:02.581Z,24.30
2022-08-16T06:13:12.281Z,24.40
2022-08-16T06:15:21.571Z,24.40
2022-08-16T06:17:24.929Z,24.50
2022-08-16T06:19:44.898Z,24.50
2022-08-16T06:21:55.230Z,24.70
2022-08-16T06:24:01.281Z,24.70
2022-08-16T06:26:07.441Z,24.80
2022-08-16T06:28:17.048Z,24.90
2022-08-16T06:30:36.153Z,25.00
2022-08-16T06:32:48.605Z,25.00
2022-08-16T06:34:57.530Z,25.10
2022-08-16T06:37:07.538Z,25.20
2022-08-16T06:39:10.450Z,25.20
2022-08-16T06:41:13.880Z,25.30
2022-08-16T06:43:16.968Z,25.30
2022-08-16T06:45:20.854Z,25.40
2022-08-16T06:47:41.921Z,25.40
2022-08-16T06:49:53.862Z,25.40
2022-08-16T06:52:03.214Z,25.50
2022-08-16T06:54:09.218Z,25.60
2022-08-16T06:56:22.890Z,25.70
2022-08-16T06:58:31.542Z,25.70
2022-08-16T07:00:34.584Z,25.80
2022-08-16T07:02:45.543Z,25.80
2022-08-16T07:04:54.482Z,25.80
2022-08-16T07:06:57.211Z,26.00
2022-08-16T07:09:02.568Z,26.00
2022-08-16T07:11:14.392Z,26.10
2022-08-16T07:13:43.950Z,26.10
2022-08-16T07:15:50.773Z,26.20
2022-08-16T07:17:53.902Z,26.30
2022-08-16T07:20:02.939Z,26.40
2022-08-16T07:22:07.180Z,26.50
2022-08-16T07:24:31.198Z,26.60
2022-08-16T07:26:35.301Z,26.70
2022-08-16T07:28:39.016Z,26.70
2022-08-16T07:30:46.666Z,26.80
2022-08-16T07:32:51.654Z,26.90
2022-08-16T07:34:54.705Z,26.90
2022-08-16T07:36:58.307Z,27.00
2022-08-16T07:39:01.657Z,27.00
2022-08-16T07:41:10.261Z,27.10
2022-08-16T07:43:14.950Z,27.20
2022-08-16T07:45:17.763Z,27.20
2022-08-16T07:47:24.624Z,27.20
2022-08-16T07:49:34.111Z,27.10
2022-08-16T07:51:37.771Z,27.20
2022-08-16T07:53:43.645Z,27.30
2022-08-16T07:55:48.020Z,27.20
2022-08-16T07:57:59.638Z,27.40
2022-08-16T08:00:05.151Z,27.50
2022-08-16T08:02:11.985Z,27.60
2022-08-16T08:04:14.965Z,27.70
2022-08-16T08:06:19.257Z,27.70
2022-08-16T08:08:51.178Z,27.80
2022-08-16T08:10:45.267Z,27.80
2022-08-16T08:12:51.188Z,27.90
2022-08-16T08:14:57.738Z,28.00
2022-08-16T08:17:02.157Z,28.10
2022-08-16T08:19:09.405Z,28.20
2022-08-16T08:21:12.818Z,28.30
2022-08-16T08:23:16.004Z,28.40
2022-08-16T08:25:20.284Z,28.40
2022-08-16T08:27:23.903Z,28.40
2022-08-16T08:29:37.343Z,28.40
2022-08-16T08:31:42.376Z,28.50
2022-08-16T08:33:51.318Z,28.40
2022-08-16T08:35:57.228Z,28.40
2022-08-16T08:38:08.250Z,28.40
2022-08-16T08:40:12.936Z,28.50
2022-08-16T08:42:16.290Z,28.70
2022-08-16T08:44:31.011Z,28.80
2022-08-16T08:46:35.780Z,28.80
2022-08-16T08:48:39.029Z,28.80
2022-08-16T08:50:50.197Z,28.90
2022-08-16T08:52:53.858Z,29.10
2022-08-16T08:54:56.745Z,29.10
2022-08-16T08:56:59.520Z,29.20
2022-08-16T08:59:13.150Z,29.20
2022-08-16T09:01:31.497Z,29.30
2022-08-16T09:03:40.760Z,29.40
2022-08-16T09:05:44.409Z,29.50
2022-08-16T09:08:01.986Z,29.40
2022-08-16T09:10:20.282Z,29.50
2022-08-16T09:12:36.125Z,29.60
2022-08-16T09:14:49.433Z,29.70
2022-08-16T09:17:01.043Z,29.80
2022-08-16T09:21:12.366Z,29.90
2022-08-16T09:23:18.484Z,30.00
2022-08-16T09:25:33.592Z,30.10
2022-08-16T09:27:46.830Z,30.20
2022-08-16T09:30:00.378Z,30.30
2022-08-16T09:32:07.667Z,30.20
2022-08-16T09:34:13.848Z,30.20
2022-08-16T09:36:32.343Z,30.20
2022-08-16T09:38:38.344Z,30.30
2022-08-16T09:40:45.294Z,30.40
2022-08-16T09:43:05.843Z,30.50
2022-08-16T09:45:16.438Z,30.60
2022-08-16T09:47:23.492Z,30.80
2022-08-16T09:49:37.009Z,30.80
2022-08-16T09:51:40.498Z,30.90
2022-08-16T09:53:44.834Z,30.90
2022-08-16T09:55:57.662Z,31.00
2022-08-16T09:58:02.098Z,31.00
2022-08-16T10:00:42.436Z,31.10
2022-08-16T10:02:30.982Z,31.10
2022-08-16T10:04:44.174Z,31.00
2022-08-16T10:09:11.268Z,31.20
2022-08-16T10:11:32.036Z,31.30
2022-08-16T10:13:52.974Z,31.50
2022-08-16T10:15:59.556Z,31.60
2022-08-16T10:19:00.987Z,31.60
2022-08-16T10:20:34.614Z,31.70
2022-08-16T10:22:37.969Z,31.80
2022-08-16T10:24:55.762Z,31.90
2022-08-16T10:27:26.060Z,31.90
2022-08-16T10:29:25.381Z,31.90
2022-08-16T10:31:53.467Z,31.70
2022-08-16T10:33:56.730Z,31.60
2022-08-16T10:36:03.318Z,31.60
2022-08-16T10:38:09.614Z,31.60
2022-08-16T10:40:31.071Z,31.60
2022-08-16T10:42:33.871Z,31.60
2022-08-16T10:44:37.218Z,31.60
2022-08-16T10:46:41.916Z,31.60
2022-08-16T10:48:46.951Z,31.70
2022-08-16T10:50:50.025Z,31.70
2022-08-16T10:52:58.729Z,31.90
2022-08-16T10:57:27.541Z,32.00
2022-08-16T10:59:46.027Z,32.00
2022-08-16T11:07:06.636Z,32.10
2022-08-16T11:09:24.387Z,32.30
2022-08-16T11:11:28.412Z,32.50
2022-08-16T11:15:57.536Z,32.60
2022-08-16T11:20:41.120Z,32.70
2022-08-16T11:22:48.562Z,32.70
2022-08-16T11:25:11.848Z,32.80
2022-08-16T11:27:20.582Z,32.80
2022-08-16T11:29:26.800Z,32.80
2022-08-16T11:31:29.965Z,32.70
2022-08-16T11:38:51.824Z,32.50
2022-08-16T11:40:52.437Z,32.50
2022-08-16T11:42:56.437Z,32.50
2022-08-16T11:45:00.594Z,32.70
2022-08-16T11:47:04.939Z,32.80
2022-08-16T11:49:13.183Z,32.90
2022-08-16T11:51:16.601Z,33.00
2022-08-16T11:53:20.204Z,33.00
2022-08-16T11:55:24.760Z,33.10
2022-08-16T11:57:27.616Z,33.10
2022-08-16T11:59:30.797Z,33.10
2022-08-16T12:01:44.432Z,33.10
2022-08-16T12:03:58.543Z,33.20
2022-08-16T12:06:10.920Z,33.20
2022-08-16T12:08:15.581Z,33.20
2022-08-16T12:10:21.169Z,33.10
2022-08-16T12:12:24.591Z,33.10
2022-08-16T12:14:35.547Z,33.20
2022-08-16T12:16:48.596Z,33.00
2022-08-16T12:18:51.879Z,32.90
2022-08-16T12:20:55.338Z,32.90
2022-08-16T12:23:01.220Z,33.00
2022-08-16T12:25:05.722Z,32.80
2022-08-16T12:27:08.620Z,32.90
2022-08-16T12:29:13.564Z,32.90
2022-08-16T12:31:16.411Z,33.00
2022-08-16T12:33:25.435Z,33.00
2022-08-16T12:35:30.610Z,33.00
2022-08-16T12:37:33.517Z,33.00
2022-08-16T12:39:37.770Z,33.00
2022-08-16T12:41:49.993Z,32.90
2022-08-16T12:43:57.004Z,32.80
2022-08-16T12:46:04.070Z,32.80
2022-08-16T12:48:36.867Z,32.90
2022-08-16T12:50:41.371Z,32.80
2022-08-16T12:52:52.128Z,32.70
2022-08-16T12:54:57.909Z,32.70
2022-08-16T12:57:01.254Z,32.70
2022-08-16T12:59:09.317Z,32.80
2022-08-16T13:01:14.765Z,32.90
2022-08-16T13:03:20.405Z,33.10
2022-08-16T13:05:25.304Z,33.20
2022-08-16T13:07:37.354Z,33.30
2022-08-16T13:09:51.555Z,33.30
2022-08-16T13:12:04.286Z,33.40
2022-08-16T13:14:07.344Z,33.50
2022-08-16T13:16:24.942Z,33.50
2022-08-16T13:18:34.808Z,33.50
2022-08-16T13:20:38.469Z,33.20
2022-08-16T13:22:45.137Z,33.00
2022-08-16T13:24:50.599Z,32.70
2022-08-16T13:26:54.059Z,32.60
2022-08-16T13:28:57.582Z,32.50
2022-08-16T13:31:01.108Z,32.20
2022-08-16T13:33:10.772Z,32.20
2022-08-16T13:35:16.112Z,32.20
2022-08-16T13:37:19.770Z,32.20
2022-08-16T13:39:24.492Z,32.20
2022-08-16T13:41:30.227Z,32.30
2022-08-16T13:43:33.726Z,32.20
2022-08-16T13:45:36.574Z,32.40
2022-08-16T13:47:39.841Z,32.70
2022-08-16T13:49:46.392Z,32.80
2022-08-16T13:51:49.511Z,33.00
2022-08-16T13:53:59.841Z,33.20
2022-08-16T13:56:07.095Z,33.30
2022-08-16T13:58:34.475Z,33.40
2022-08-16T14:00:36.357Z,33.50
2022-08-16T14:02:39.735Z,33.50
2022-08-16T14:04:43.320Z,33.60
2022-08-16T14:06:46.110Z,33.40
2022-08-16T14:08:58.754Z,33.50
2022-08-16T14:11:12.439Z,33.60
2022-08-16T14:13:21.174Z,33.70
2022-08-16T14:15:25.428Z,34.00
2022-08-16T14:18:15.711Z,34.10
2022-08-16T14:20:00.061Z,34.20
2022-08-16T14:22:14.724Z,34.40
2022-08-16T14:24:29.633Z,34.50
2022-08-16T14:26:34.583Z,34.60
2022-08-16T14:28:37.390Z,34.70
2022-08-16T14:30:40.646Z,34.60
2022-08-16T14:32:46.703Z,34.60
2022-08-16T14:34:53.499Z,34.70
2022-08-16T14:36:59.585Z,34.70
2022-08-16T14:39:02.635Z,34.70
2022-08-16T14:41:10.222Z,34.70
2022-08-16T14:43:15.478Z,34.80
2022-08-16T14:45:21.252Z,34.80
2022-08-16T14:47:25.230Z,34.80
2022-08-16T14:49:40.503Z,34.70
2022-08-16T14:51:46.136Z,34.50
2022-08-16T14:53:49.899Z,34.50
2022-08-16T14:55:56.109Z,34.50
2022-08-16T14:57:58.960Z,34.40
2022-08-16T15:00:06.019Z,34.40
2022-08-16T15:02:15.137Z,34.30
2022-08-16T15:04:47.774Z,34.30
2022-08-16T15:06:51.374Z,34.30
2022-08-16T15:08:54.085Z,34.30
2022-08-16T15:10:57.271Z,34.40
2022-08-16T15:13:01.385Z,34.50
2022-08-16T15:15:12.656Z,34.70
2022-08-16T15:17:20.021Z,34.70
2022-08-16T15:19:27.016Z,34.80
2022-08-16T15:21:31.459Z,34.60
2022-08-16T15:23:34.590Z,34.60
2022-08-16T15:25:41.392Z,34.60
2022-08-16T15:27:46.253Z,34.60
2022-08-16T15:29:59.140Z,34.60
2022-08-16T15:32:03.238Z,34.60
2022-08-16T15:34:18.981Z,34.30
2022-08-16T15:36:25.905Z,34.30
2022-08-16T15:38:54.668Z,34.20
2022-08-16T15:40:58.674Z,34.20
2022-08-16T15:43:03.011Z,34.30
2022-08-16T15:45:12.055Z,34.20
2022-08-16T15:47:16.871Z,34.20
2022-08-16T15:49:21.337Z,34.30
2022-08-16T15:51:24.151Z,34.20
2022-08-16T15:53:30.721Z,34.20
2022-08-16T15:55:35.363Z,34.30
2022-08-16T15:57:41.631Z,34.30
2022-08-16T15:59:55.772Z,34.30
2022-08-16T16:01:59.288Z,34.10
2022-08-16T16:04:03.602Z,34.00
2022-08-16T16:06:10.920Z,33.50
2022-08-16T16:08:24.184Z,33.40
2022-08-16T16:10:29.546Z,33.30
2022-08-16T16:12:51.145Z,33.10
2022-08-16T16:14:55.774Z,32.90
2022-08-16T16:17:00.891Z,33.00
2022-08-16T16:19:06.059Z,33.00
2022-08-16T16:21:12.548Z,32.70
2022-08-16T16:23:27.980Z,32.80
2022-08-16T16:25:32.888Z,32.50
2022-08-16T16:27:36.104Z,32.20
2022-08-16T16:29:40.491Z,32.20
2022-08-16T16:31:58.992Z,32.20
2022-08-16T16:34:03.473Z,31.90
2022-08-16T16:36:09.528Z,31.60
2022-08-16T16:38:14.160Z,31.80
2022-08-16T16:40:23.966Z,31.70
2022-08-16T16:42:40.372Z,31.70
2022-08-16T16:44:51.039Z,31.90
2022-08-16T16:46:57.780Z,31.80
2022-08-16T16:49:03.952Z,31.70
2022-08-16T16:51:10.374Z,31.70
2022-08-16T16:53:17.546Z,31.60
2022-08-16T16:55:21.543Z,31.70
2022-08-16T16:57:45.593Z,31.60
2022-08-16T16:59:55.641Z,31.50
2022-08-16T17:02:41.523Z,31.40
2022-08-16T17:04:32.016Z,31.40
2022-08-16T17:06:39.370Z,31.60
2022-08-16T17:08:44.625Z,31.70
2022-08-16T17:10:51.138Z,31.70
2022-08-16T17:12:56.647Z,31.60
2022-08-16T17:14:59.715Z,31.50
2022-08-16T17:17:06.630Z,31.40
2022-08-16T17:19:16.475Z,31.30
2022-08-16T17:21:21.984Z,31.40
2022-08-16T17:23:59.226Z,31.40
2022-08-16T17:25:52.224Z,31.30
2022-08-16T17:27:55.803Z,31.30
2022-08-16T17:30:02.621Z,31.30
2022-08-16T17:32:33.791Z,31.20
2022-08-16T17:34:33.719Z,31.20
2022-08-16T17:39:12.266Z,31.10
2022-08-16T17:39:28.771Z,31.10
2022-08-16T17:41:18.090Z,31.30
2022-08-16T17:43:24.713Z,31.30
2022-08-16T17:45:27.594Z,31.40
2022-08-16T17:47:30.397Z,31.30
2022-08-16T17:49:33.434Z,31.30
2022-08-16T17:51:36.765Z,31.40
2022-08-16T17:53:41.664Z,31.40
2022-08-16T17:55:48.573Z,31.40
2022-08-16T17:57:52.273Z,31.30
2022-08-16T17:59:56.787Z,31.30
2022-08-16T18:01:59.801Z,31.30
2022-08-16T18:04:48.539Z,31.30
2022-08-16T18:06:40.678Z,31.30
2022-08-16T18:08:43.532Z,31.30
2022-08-16T18:10:47.810Z,31.20
2022-08-16T18:12:55.724Z,31.10
2022-08-16T18:15:00.216Z,31.00
2022-08-16T18:17:03.324Z,31.00
2022-08-16T18:19:06.102Z,30.90
2022-08-16T18:21:38.697Z,30.80
2022-08-16T18:23:41.754Z,30.60
2022-08-16T18:25:48.237Z,30.40
2022-08-16T18:27:51.054Z,30.40
2022-08-16T18:29:53.914Z,30.40
2022-08-16T18:31:56.727Z,30.40
2022-08-16T18:34:01.367Z,30.40
2022-08-16T18:36:05.963Z,30.40
2022-08-16T18:38:24.336Z,30.30
2022-08-16T18:40:27.303Z,30.30
2022-08-16T18:42:31.530Z,30.30
2022-08-16T18:44:38.821Z,30.30
2022-08-16T18:46:43.732Z,30.20
2022-08-16T18:48:46.669Z,30.10
2022-08-16T18:50:58.852Z,30.00
2022-08-16T18:53:10.418Z,30.00
2022-08-16T18:55:14.511Z,29.90
2022-08-16T18:57:17.695Z,29.90
2022-08-16T18:59:21.852Z,29.80
2022-08-16T19:01:24.711Z,29.80
2022-08-16T19:03:29.571Z,29.70
2022-08-16T19:05:35.260Z,29.70
2022-08-16T19:07:38.434Z,29.60
2022-08-16T19:09:41.297Z,29.50
2022-08-16T19:11:44.123Z,29.40
2022-08-16T19:13:47.278Z,29.40
2022-08-16T19:15:55.686Z,29.30
2022-08-16T19:17:58.755Z,29.30
2022-08-16T19:20:01.608Z,29.20
2022-08-16T19:22:05.878Z,29.20
2022-08-16T19:24:15.646Z,29.10
2022-08-16T19:26:25.711Z,29.10
2022-08-16T19:28:51.204Z,29.00
2022-08-16T19:30:55.919Z,28.90
2022-08-16T19:32:58.661Z,28.80
2022-08-16T19:35:01.721Z,28.80
2022-08-16T19:37:07.471Z,28.70
2022-08-16T19:39:13.617Z,28.60
2022-08-16T19:41:16.418Z,28.60
2022-08-16T19:43:21.874Z,28.50
2022-08-16T19:45:25.071Z,28.50
2022-08-16T19:47:29.507Z,28.40
2022-08-16T19:49:32.265Z,28.40
2022-08-16T19:51:35.395Z,28.30
2022-08-16T19:53:40.419Z,28.20
2022-08-16T19:55:43.829Z,28.20
2022-08-16T19:57:48.401Z,28.10
2022-08-16T19:59:52.305Z,28.10
2022-08-16T20:01:55.091Z,28.10
2022-08-16T20:03:59.504Z,28.00
2022-08-16T20:06:02.253Z,28.00
2022-08-16T20:08:06.039Z,27.90
2022-08-16T20:10:10.427Z,27.90
2022-08-16T20:12:19.654Z,27.80
2022-08-16T20:14:25.378Z,27.80
2022-08-16T20:16:29.195Z,27.80
2022-08-16T20:18:32.554Z,27.70
2022-08-16T20:20:37.090Z,27.70
2022-08-16T20:22:53.512Z,27.60
2022-08-16T20:24:57.662Z,27.50
2022-08-16T20:27:00.462Z,27.50
2022-08-16T20:29:03.373Z,27.40
2022-08-16T20:31:06.639Z,27.20
2022-08-16T20:33:14.107Z,27.10
2022-08-16T20:35:21.302Z,27.00
2022-08-16T20:37:25.437Z,27.00
2022-08-16T20:39:28.543Z,26.90
2022-08-16T20:41:32.047Z,26.90
2022-08-16T20:43:35.155Z,26.90
2022-08-16T20:45:39.874Z,26.90
2022-08-16T20:47:42.777Z,27.00
2022-08-16T20:49:45.680Z,26.90
2022-08-16T20:51:50.482Z,26.90
2022-08-16T20:53:56.581Z,26.90
2022-08-16T20:55:59.403Z,26.90
2022-08-16T20:58:02.217Z,26.80
2022-08-16T21:00:07.375Z,26.70
2022-08-16T21:02:13.105Z,26.70
2022-08-16T21:04:16.287Z,26.70
2022-08-16T21:06:19.375Z,26.60
2022-08-16T21:08:50.245Z,26.60
2022-08-16T21:10:46.787Z,26.50
2022-08-16T21:12:51.992Z,26.40
2022-08-16T21:14:55.403Z,26.30
2022-08-16T21:16:58.310Z,26.30
2022-08-16T21:19:01.184Z,26.30
2022-08-16T21:21:04.095Z,26.30
2022-08-16T21:23:10.049Z,26.30
2022-08-16T21:25:13.201Z,26.30
2022-08-16T21:27:18.968Z,26.30
2022-08-16T21:29:24.782Z,26.20
2022-08-16T21:31:27.789Z,26.20
2022-08-16T21:33:30.638Z,26.20
2022-08-16T21:35:33.778Z,26.20
2022-08-16T21:37:36.580Z,26.20
2022-08-16T21:39:40.238Z,26.20
2022-08-16T21:41:43.008Z,26.10
2022-08-16T21:43:47.147Z,26.00
2022-08-16T21:45:54.838Z,26.00
2022-08-16T21:47:58.782Z,26.00
2022-08-16T21:50:01.583Z,25.90
2022-08-16T21:52:05.551Z,25.90
2022-08-16T21:54:08.362Z,25.90
2022-08-16T21:56:16.883Z,26.00
2022-08-16T21:58:20.729Z,25.90
2022-08-16T22:00:24.819Z,25.90
2022-08-16T22:02:35.738Z,25.80
2022-08-16T22:04:41.605Z,25.80
2022-08-16T22:06:45.024Z,25.70
2022-08-16T22:08:51.124Z,25.70
2022-08-16T22:11:06.769Z,25.70
2022-08-16T22:13:17.200Z,25.70
2022-08-16T22:15:25.594Z,25.60
2022-08-16T22:17:30.026Z,25.60
2022-08-16T22:19:32.782Z,25.50
2022-08-16T22:21:36.192Z,25.50
2022-08-16T22:23:39.054Z,25.50
2022-08-16T22:25:47.577Z,25.40
2022-08-16T22:27:50.375Z,25.30
2022-08-16T22:29:55.605Z,25.30
2022-08-16T22:31:58.491Z,25.30
2022-08-16T22:34:02.612Z,25.30
2022-08-16T22:36:06.563Z,25.30
2022-08-16T22:38:50.304Z,25.30
2022-08-16T22:40:32.011Z,25.30
2022-08-16T22:42:34.770Z,25.20
2022-08-16T22:44:42.947Z,25.20
2022-08-16T22:46:48.462Z,25.20
2022-08-16T22:48:51.435Z,25.10
2022-08-16T22:50:55.562Z,25.10
2022-08-16T22:52:58.602Z,25.10
2022-08-16T22:55:02.563Z,25.10
2022-08-16T22:57:06.309Z,25.10
2022-08-16T22:59:09.110Z,25.10
2022-08-16T23:01:15.026Z,25.10
2022-08-16T23:03:20.653Z,25.10
2022-08-16T23:05:24.400Z,25.00
2022-08-16T23:07:28.433Z,24.90
2022-08-16T23:09:31.942Z,24.90
2022-08-16T23:11:35.531Z,24.80
2022-08-16T23:13:52.771Z,24.80
2022-08-16T23:15:59.252Z,24.80
2022-08-16T23:18:04.124Z,24.80
2022-08-16T23:20:07.749Z,24.80
2022-08-16T23:22:12.490Z,24.80
2022-08-16T23:24:19.245Z,24.80
2022-08-16T23:26:43.913Z,24.70
2022-08-16T23:28:45.337Z,24.70
2022-08-16T23:30:50.245Z,24.60
2022-08-16T23:32:55.026Z,24.60
2022-08-16T23:34:58.444Z,24.60
2022-08-16T23:37:01.237Z,24.60
2022-08-16T23:39:04.145Z,24.50
2022-08-16T23:41:14.614Z,24.50
2022-08-16T23:43:20.373Z,24.40
2022-08-16T23:45:24.134Z,24.40
2022-08-16T23:47:26.856Z,24.40
2022-08-16T23:49:56.240Z,24.30
2022-08-16T23:51:53.937Z,24.30
2022-08-16T23:53:56.848Z,24.30
2022-08-16T23:56:01.917Z,24.30
2022-08-16T23:58:06.466Z,24.20
